Time;durP1;ratioP1;P1;durP2;ratioP2;P2;SDS_P1;SDS_P2;PMS_P1;PMS_P2;Temp;Humidity;BMP_temperature;BMP_pressure;BME280_temperature;BME280_humidity;BME280_pressure;Samples;Min_cycle;Max_cycle;Signal;HPM_P1;HPM_P2
2022/06/22 00:02:11;;;;;;;13.85;7.78;;;;;;;16.34;60.23;97826.63;5083962;27;20081;-68
2022/06/22 00:05:07;;;;;;;12.55;7.70;;;;;;;16.37;60.20;97833.47;5066007;27;20624;-68
2022/06/22 00:07:42;;;;;;;12.75;7.60;;;;;;;16.31;60.93;97835.06;5067083;27;20122;-69
2022/06/22 00:10:31;;;;;;;12.00;7.22;;;;;;;16.34;60.99;97837.41;5106459;27;20133;-70
2022/06/22 00:12:58;;;;;;;14.57;7.72;;;;;;;16.27;61.17;97833.78;5082981;27;20061;-71
2022/06/22 00:15:30;;;;;;;14.77;7.60;;;;;;;16.24;61.14;97840.38;5111998;27;20042;-75
2022/06/22 00:17:55;;;;;;;15.07;8.40;;;;;;;16.25;61.35;97833.97;5093537;27;20047;-72
2022/06/22 00:20:25;;;;;;;13.13;7.85;;;;;;;16.25;61.72;97839.34;5088809;27;20050;-73
2022/06/22 00:22:54;;;;;;;15.30;8.43;;;;;;;16.23;61.67;97840.56;5120109;27;20038;-69
2022/06/22 00:25:31;;;;;;;13.93;7.85;;;;;;;16.27;61.99;97840.00;5119902;27;20046;-68
2022/06/22 00:28:26;;;;;;;12.63;8.18;;;;;;;16.33;61.67;97836.56;5120254;27;20046;-70
2022/06/22 00:31:04;;;;;;;13.15;8.18;;;;;;;16.29;62.30;97848.69;5082582;27;20034;-68
2022/06/22 00:33:29;;;;;;;14.70;8.05;;;;;;;16.24;62.13;97848.47;5114737;27;20038;-69
2022/06/22 00:36:18;;;;;;;14.23;8.02;;;;;;;16.30;62.32;97850.38;5121765;27;20039;-65
2022/06/22 00:38:43;;;;;;;12.25;7.63;;;;;;;16.24;62.96;97847.63;5119304;27;20094;-65
2022/06/22 00:41:37;;;;;;;12.70;7.75;;;;;;;16.34;63.12;97842.78;5121965;27;20042;-68
2022/06/22 00:44:07;;;;;;;10.68;7.40;;;;;;;16.31;62.99;97848.53;5018017;28;20188;-68
2022/06/22 00:46:33;;;;;;;15.35;7.93;;;;;;;16.26;63.20;97834.78;5001226;28;20114;-73
2022/06/22 00:48:58;;;;;;;13.98;8.05;;;;;;;16.25;63.24;97844.72;5021611;28;20057;-73
2022/06/22 00:51:31;;;;;;;17.55;8.02;;;;;;;16.30;63.35;97849.53;5003656;28;20037;-72
2022/06/22 00:54:03;;;;;;;16.08;9.70;;;;;;;16.26;63.75;97850.94;5003529;28;20060;-73
2022/06/22 00:56:36;;;;;;;17.60;9.68;;;;;;;16.30;63.49;97847.69;5018314;28;20041;-75
2022/06/22 00:59:21;;;;;;;16.65;10.13;;;;;;;16.31;63.65;97849.34;4984377;28;20041;-69
2022/06/22 01:02:12;;;;;;;17.98;11.13;;;;;;;16.30;64.01;97852.22;5016130;28;20048;-69
2022/06/22 01:05:00;;;;;;;14.38;10.13;;;;;;;16.28;64.23;97867.72;4905517;28;20062;-69
2022/06/22 01:07:38;;;;;;;17.58;10.43;;;;;;;16.19;64.32;97864.31;4891156;28;20070;-66
2022/06/22 01:10:16;;;;;;;24.20;11.75;;;;;;;16.13;65.35;97857.00;4905975;28;20053;-67
2022/06/22 01:12:50;;;;;;;16.80;10.18;;;;;;;16.07;65.79;97870.34;4937198;28;20352;-68
2022/06/22 01:15:31;;;;;;;18.40;10.45;;;;;;;16.04;65.43;97863.50;4920821;28;20046;-70
2022/06/22 01:18:00;;;;;;;17.88;9.80;;;;;;;15.98;66.51;97865.09;4917773;28;20050;-70
2022/06/22 01:20:29;;;;;;;13.35;9.13;;;;;;;15.95;66.44;97861.94;4941080;28;20049;-70
2022/06/22 01:23:12;;;;;;;15.05;8.77;;;;;;;15.90;66.14;97861.66;5003385;28;20052;-70
2022/06/22 01:25:46;;;;;;;14.15;8.48;;;;;;;15.90;66.52;97858.97;5005301;28;20048;-71
2022/06/22 01:28:13;;;;;;;11.63;8.32;;;;;;;15.86;66.98;97868.44;4972936;28;20049;-71
2022/06/22 01:30:47;;;;;;;12.65;7.82;;;;;;;15.87;66.74;97867.41;4987558;28;20045;-69
2022/06/22 01:33:23;;;;;;;11.52;7.90;;;;;;;15.85;66.70;97872.13;4990766;28;20123;-68
2022/06/22 01:35:55;;;;;;;11.57;7.78;;;;;;;15.84;66.73;97870.47;5006760;28;20294;-68
2022/06/22 01:38:24;;;;;;;12.73;7.43;;;;;;;15.82;66.93;97873.31;4994874;28;20051;-70
2022/06/22 01:41:10;;;;;;;12.55;7.35;;;;;;;15.83;66.95;97876.84;5010103;27;20502;-70
2022/06/22 01:43:53;;;;;;;14.27;7.50;;;;;;;15.85;66.69;97875.66;5060900;28;20039;-71
2022/06/22 01:46:32;;;;;;;10.00;6.85;;;;;;;15.83;66.98;97884.91;5064719;28;20039;-71
2022/06/22 01:49:21;;;;;;;10.10;6.82;;;;;;;15.86;66.61;97887.25;5070203;28;20039;-71
2022/06/22 01:51:51;;;;;;;7.63;6.38;;;;;;;15.81;66.54;97889.63;5086457;27;20047;-71
2022/06/22 01:54:43;;;;;;;11.10;8.02;;;;;;;15.80;66.61;97885.31;5107638;27;20051;-72
2022/06/22 01:57:16;;;;;;;9.07;6.07;;;;;;;15.80;66.60;97883.44;5067224;27;20138;-73
2022/06/22 01:59:59;;;;;;;9.05;5.97;;;;;;;15.84;66.12;97883.91;5103166;27;20035;-74
2022/06/22 02:02:42;;;;;;;9.50;6.10;;;;;;;15.83;66.25;97877.69;5083607;27;20039;-74
2022/06/22 02:05:29;;;;;;;9.20;5.80;;;;;;;15.86;66.24;97876.50;5082649;27;20171;-74
2022/06/22 02:07:54;;;;;;;9.80;5.82;;;;;;;15.81;66.16;97871.66;5080150;27;20043;-75
2022/06/22 02:10:46;;;;;;;8.85;5.18;;;;;;;15.84;66.31;97876.66;5097884;27;20046;-75
2022/06/22 02:13:22;;;;;;;12.18;7.28;;;;;;;15.84;66.25;97878.53;5079491;27;20038;-70
2022/06/22 02:16:21;;;;;;;10.32;6.80;;;;;;;15.81;66.31;97885.09;5067905;27;20039;-70
2022/06/22 02:18:48;;;;;;;7.80;5.75;;;;;;;15.82;66.45;97880.56;5092985;27;20039;-71
2022/06/22 02:21:24;;;;;;;7.95;6.15;;;;;;;15.86;66.23;97889.91;5097833;27;20042;-70
2022/06/22 02:23:56;;;;;;;7.57;5.53;;;;;;;15.83;66.11;97884.91;5097340;27;20049;-70
2022/06/22 02:26:27;;;;;;;8.48;5.85;;;;;;;15.86;66.15;97892.63;5097147;27;20043;-71
2022/06/22 02:28:51;;;;;;;11.55;6.07;;;;;;;15.84;65.72;97890.09;5097054;27;20035;-70
2022/06/22 02:31:20;;;;;;;9.07;5.57;;;;;;;15.87;65.45;97892.44;5078598;27;20050;-71
2022/06/22 02:33:49;;;;;;;9.68;4.93;;;;;;;15.88;65.39;97888.72;5078310;27;20050;-71
2022/06/22 02:36:14;;;;;;;10.63;5.50;;;;;;;15.86;65.34;97892.63;5078693;27;20043;-71
2022/06/22 02:38:42;;;;;;;7.82;5.53;;;;;;;15.87;64.93;97896.97;5078537;27;20076;-71
2022/06/22 02:46:40;;;;;;;7.68;4.90;;;;;;;15.87;64.55;97895.13;5097245;27;20043;-70
2022/06/22 02:49:20;;;;;;;6.82;4.70;;;;;;;15.91;64.44;97895.59;5061745;27;20091;-70
2022/06/22 02:51:47;;;;;;;7.45;5.22;;;;;;;15.87;64.26;97888.91;5079414;27;20074;-73
2022/06/22 02:54:26;;;;;;;8.50;5.93;;;;;;;15.89;64.48;97900.31;5097332;27;20043;-72
2022/06/22 02:57:11;;;;;;;6.63;5.03;;;;;;;15.82;64.02;97892.13;5080170;27;20047;-74
2022/06/22 02:59:36;;;;;;;5.80;4.75;;;;;;;15.80;64.34;97890.69;5098830;27;20497;-74
2022/06/22 03:02:02;;;;;;;7.07;5.30;;;;;;;15.75;64.43;97901.13;5079977;27;20521;-73
2022/06/22 03:04:28;;;;;;;9.93;5.20;;;;;;;15.70;64.73;97896.31;5079185;27;20527;-73
2022/06/22 03:06:54;;;;;;;12.13;5.22;;;;;;;15.74;64.59;97902.16;5078977;27;20058;-73
2022/06/22 03:09:20;;;;;;;8.25;5.88;;;;;;;15.74;64.61;97900.31;5078977;27;20488;-76
2022/06/22 03:11:50;;;;;;;7.43;5.82;;;;;;;15.75;64.87;97901.97;5098515;27;20047;-74
2022/06/22 03:14:19;;;;;;;7.65;5.72;;;;;;;15.77;64.79;97905.31;5097556;27;20043;-73
2022/06/22 03:16:49;;;;;;;8.10;5.28;;;;;;;15.89;64.41;97905.69;5065957;27;20114;-75
2022/06/22 03:19:20;;;;;;;9.20;5.05;;;;;;;15.96;64.21;97906.59;5092607;27;20134;-75
2022/06/22 03:21:45;;;;;;;14.77;5.70;;;;;;;16.04;63.83;97902.97;5100448;27;20043;-75
2022/06/22 03:24:34;;;;;;;9.02;5.53;;;;;;;16.16;63.79;97907.69;5100989;27;20077;-75
2022/06/22 03:27:03;;;;;;;9.90;5.38;;;;;;;16.16;63.43;97910.38;5119596;27;20489;-76
2022/06/22 03:29:31;;;;;;;8.50;5.07;;;;;;;16.13;63.28;97916.16;5119253;27;20050;-76
2022/06/22 03:32:01;;;;;;;9.93;5.32;;;;;;;16.11;63.52;97912.81;5118809;27;20050;-76
2022/06/22 03:34:40;;;;;;;10.70;5.15;;;;;;;16.14;63.50;97917.00;5098919;27;20574;-71
2022/06/22 03:37:11;;;;;;;7.80;5.82;;;;;;;16.13;63.42;97920.69;5098273;27;20064;-71
2022/06/22 03:39:41;;;;;;;7.60;5.20;;;;;;;16.10;63.56;97929.13;5098337;27;20083;-71
2022/06/22 03:42:13;;;;;;;7.03;5.30;;;;;;;16.11;63.60;97928.94;5116501;27;20055;-72
2022/06/22 03:44:45;;;;;;;7.15;5.55;;;;;;;16.12;63.63;97932.47;5099200;27;20081;-71
2022/06/22 03:47:25;;;;;;;10.82;5.45;;;;;;;16.17;63.24;97936.25;5098053;27;20489;-72
2022/06/22 03:50:01;;;;;;;8.82;5.05;;;;;;;16.22;63.56;97930.31;5100253;27;20083;-71
2022/06/22 03:52:37;;;;;;;7.78;6.00;;;;;;;16.25;63.41;97941.53;5099734;27;20507;-72
2022/06/22 03:55:06;;;;;;;8.52;5.75;;;;;;;16.30;62.75;97938.28;5098547;27;20047;-71
2022/06/22 03:57:37;;;;;;;6.38;4.88;;;;;;;16.20;62.96;97941.25;5098010;27;20054;-71
2022/06/22 04:00:04;;;;;;;12.65;6.43;;;;;;;16.13;63.19;97937.66;5116287;27;20058;-71
2022/06/22 04:02:29;;;;;;;9.32;5.13;;;;;;;16.07;63.44;97941.06;5116601;27;20039;-72
2022/06/22 04:04:56;;;;;;;6.85;5.40;;;;;;;16.05;63.53;97937.72;5116934;27;20057;-72
2022/06/22 04:07:23;;;;;;;9.45;5.85;;;;;;;16.08;63.43;97939.22;5098433;27;20053;-71
2022/06/22 04:09:52;;;;;;;7.45;5.43;;;;;;;16.14;63.18;97941.19;5100685;27;20038;-71
2022/06/22 04:12:43;;;;;;;14.80;9.90;;;;;;;16.21;63.27;97942.94;5100355;27;20103;-71
2022/06/22 04:15:20;;;;;;;10.00;5.75;;;;;;;16.29;63.19;97945.50;5117100;27;20039;-72
2022/06/22 04:17:48;;;;;;;8.15;6.10;;;;;;;16.39;62.87;97944.38;5098535;27;20046;-71
2022/06/22 04:20:51;;;;;;;8.55;5.97;;;;;;;16.46;62.70;97951.53;5116675;27;20082;-69
2022/06/22 04:23:23;;;;;;;8.38;5.57;;;;;;;16.51;62.65;97951.78;5082435;27;20038;-72
2022/06/22 04:25:49;;;;;;;8.10;4.85;;;;;;;16.55;62.18;97961.16;5117556;27;20038;-71
2022/06/22 04:28:17;;;;;;;8.63;5.78;;;;;;;16.54;61.68;97962.19;5116111;27;20041;-70
2022/06/22 04:30:49;;;;;;;7.05;5.15;;;;;;;16.56;61.99;97964.69;5117078;27;20151;-72
2022/06/22 04:33:23;;;;;;;9.82;5.32;;;;;;;16.58;62.10;97960.78;5119029;27;20043;-71
2022/06/22 04:36:00;;;;;;;7.47;5.40;;;;;;;16.69;62.30;97978.34;5117187;27;20042;-71
2022/06/22 04:38:26;;;;;;;10.02;5.80;;;;;;;16.70;62.22;97971.94;5121032;27;20129;-72
2022/06/22 04:40:59;;;;;;;8.70;5.65;;;;;;;16.76;62.39;97976.53;5084430;27;20038;-71
2022/06/22 04:43:24;;;;;;;8.32;6.05;;;;;;;16.83;62.32;97977.44;5101028;27;20062;-71
2022/06/22 04:45:50;;;;;;;8.38;6.13;;;;;;;16.90;62.24;97977.53;5102033;27;20070;-70
2022/06/22 04:48:27;;;;;;;9.73;6.18;;;;;;;17.04;62.00;97976.66;5101533;27;20043;-72
2022/06/22 04:50:58;;;;;;;7.97;5.65;;;;;;;16.95;61.35;97977.78;5120805;27;20103;-71
2022/06/22 04:53:41;;;;;;;10.75;6.63;;;;;;;16.84;61.88;97981.81;5101106;27;20103;-72
2022/06/22 04:56:10;;;;;;;7.97;5.85;;;;;;;16.76;62.02;97986.47;5119737;27;20042;-72
2022/06/22 04:58:54;;;;;;;10.77;5.35;;;;;;;16.84;62.03;97989.88;5119634;27;20042;-73
2022/06/22 05:01:38;;;;;;;7.72;5.90;;;;;;;16.93;62.20;97988.75;5100860;27;20046;-71
2022/06/22 05:04:13;;;;;;;7.38;5.18;;;;;;;16.97;62.13;97994.59;5119594;27;20487;-72
2022/06/22 05:06:59;;;;;;;8.85;5.82;;;;;;;17.11;61.89;97996.41;5100828;27;20527;-71
2022/06/22 05:09:38;;;;;;;10.77;6.38;;;;;;;17.21;60.96;97993.41;5119157;27;20047;-71
2022/06/22 05:12:12;;;;;;;9.52;5.70;;;;;;;17.31;60.80;97989.34;5101227;27;20412;-73
2022/06/22 05:14:39;;;;;;;8.23;5.38;;;;;;;17.39;60.22;97983.81;5100755;27;20178;-71
2022/06/22 05:17:12;;;;;;;8.60;5.10;;;;;;;17.55;59.65;97995.38;5100727;27;20042;-72
2022/06/22 05:20:04;;;;;;;8.70;5.70;;;;;;;17.70;59.76;97988.91;5100211;27;20134;-72
2022/06/22 05:22:29;;;;;;;9.45;5.22;;;;;;;17.82;59.29;97993.78;5100688;27;20055;-72
2022/06/22 05:24:59;;;;;;;9.38;5.45;;;;;;;17.94;58.76;97992.22;5119493;27;20038;-71
2022/06/22 05:27:29;;;;;;;7.28;5.53;;;;;;;18.10;58.79;97991.91;5083700;27;20043;-71
2022/06/22 05:30:02;;;;;;;8.85;5.57;;;;;;;18.32;58.55;97993.47;5118161;27;20054;-72
2022/06/22 05:32:33;;;;;;;10.15;5.70;;;;;;;18.43;58.17;97998.31;5118639;27;20037;-72
2022/06/22 05:35:01;;;;;;;18.60;5.85;;;;;;;18.44;57.80;97997.28;5082675;27;20512;-71
2022/06/22 05:37:33;;;;;;;10.80;5.70;;;;;;;18.43;58.38;98002.88;5117885;27;20049;-73
2022/06/22 05:39:58;;;;;;;9.38;5.22;;;;;;;18.29;58.57;97993.03;5083055;27;20039;-74
2022/06/22 05:42:26;;;;;;;8.75;5.93;;;;;;;18.11;58.67;98001.66;5083180;27;20038;-73
2022/06/22 05:44:53;;;;;;;8.23;5.03;;;;;;;17.93;59.45;98002.16;5100073;27;20125;-69
2022/06/22 05:47:27;;;;;;;10.00;5.78;;;;;;;17.81;59.59;98011.81;5118227;27;20038;-69
2022/06/22 05:49:58;;;;;;;6.95;5.60;;;;;;;17.62;59.83;98015.97;5098880;27;20141;-69
2022/06/22 05:52:40;;;;;;;9.57;5.82;;;;;;;17.53;60.67;98018.97;5100331;27;20484;-69
2022/06/22 05:55:10;;;;;;;10.25;5.90;;;;;;;17.54;60.52;98023.34;5100593;27;20057;-70
2022/06/22 05:57:46;;;;;;;8.70;5.30;;;;;;;17.53;60.46;98027.91;5102153;27;20039;-69
2022/06/22 06:00:17;;;;;;;11.13;6.32;;;;;;;17.54;60.02;98029.56;5121834;27;20075;-71
2022/06/22 06:02:45;;;;;;;7.50;5.50;;;;;;;17.52;60.07;98026.22;5121889;27;20039;-71
2022/06/22 06:05:30;;;;;;;7.15;4.97;;;;;;;17.65;59.56;98026.38;5103871;27;20062;-72
2022/06/22 06:07:59;;;;;;;10.07;5.75;;;;;;;17.60;59.33;98034.19;5104550;27;20045;-75
2022/06/22 06:10:40;;;;;;;9.27;5.60;;;;;;;17.76;59.50;98039.34;5100961;27;20047;-70
2022/06/22 06:13:29;;;;;;;7.47;5.35;;;;;;;17.96;59.17;98031.41;5117755;27;20098;-69
2022/06/22 06:15:58;;;;;;;9.45;5.85;;;;;;;18.14;58.53;98037.16;5099910;27;20042;-76
2022/06/22 06:18:28;;;;;;;9.77;5.85;;;;;;;18.39;56.96;98031.31;5099280;27;20050;-75
2022/06/22 06:21:03;;;;;;;6.78;4.93;;;;;;;18.62;56.58;98033.75;5119184;27;20046;-75
2022/06/22 06:23:40;;;;;;;9.30;4.95;;;;;;;18.76;55.58;98044.41;5100588;27;20129;-72
2022/06/22 06:29:03;;;;;;;8.32;5.05;;;;;;;18.78;56.01;98044.22;5139706;27;20042;-72
2022/06/22 06:31:55;;;;;;;8.70;5.20;;;;;;;18.88;55.60;98043.84;5098649;27;20427;-73
2022/06/22 06:34:26;;;;;;;9.95;5.50;;;;;;;19.00;55.41;98043.06;5081019;27;20043;-72
2022/06/22 06:37:00;;;;;;;8.13;5.28;;;;;;;19.25;54.59;98039.81;5100419;27;20053;-71
2022/06/22 06:39:29;;;;;;;6.95;4.97;;;;;;;19.61;53.59;98045.75;5079450;27;20027;-73
2022/06/22 06:42:04;;;;;;;7.88;5.43;;;;;;;19.97;53.01;98039.97;5079115;27;20050;-71
2022/06/22 06:44:37;;;;;;;10.82;5.40;;;;;;;20.26;51.51;98050.34;5096723;27;20038;-71
2022/06/22 06:47:06;;;;;;;8.95;5.00;;;;;;;20.48;51.24;98045.53;5078314;27;20050;-70
2022/06/22 06:49:34;;;;;;;8.13;5.28;;;;;;;20.60;50.30;98041.13;5060851;27;20051;-71
2022/06/22 06:52:03;;;;;;;7.40;5.38;;;;;;;21.08;49.29;98043.47;5077793;27;20047;-72
2022/06/22 06:55:03;;;;;;;8.73;4.72;;;;;;;21.52;47.86;98044.53;5096984;27;20392;-73
2022/06/22 06:57:29;;;;;;;8.50;4.72;;;;;;;21.90;46.08;98053.41;5016769;28;20102;-72
2022/06/22 06:59:57;;;;;;;7.50;4.82;;;;;;;21.84;46.06;98051.59;5033532;28;20075;-72
2022/06/22 07:02:27;;;;;;;6.25;4.53;;;;;;;21.65;46.20;98055.28;5024475;28;20048;-72
2022/06/22 07:04:52;;;;;;;6.10;4.53;;;;;;;21.39;46.30;98050.84;5053672;28;20226;-71
2022/06/22 07:07:45;;;;;;;11.07;4.70;;;;;;;21.29;48.13;98054.03;5036559;28;20127;-70
2022/06/22 07:10:17;;;;;;;8.73;5.10;;;;;;;21.06;47.85;98056.41;5054376;28;20040;-73
2022/06/22 07:12:53;;;;;;;7.07;5.15;;;;;;;20.76;48.26;98055.28;5071180;28;20094;-72
2022/06/22 07:15:21;;;;;;;9.27;4.97;;;;;;;20.49;48.58;98063.44;5058120;28;20089;-74
2022/06/22 07:17:50;;;;;;;5.38;4.45;;;;;;;20.59;48.29;98065.72;5037229;28;20655;-72
2022/06/22 07:20:41;;;;;;;8.77;4.80;;;;;;;20.36;49.22;98077.00;5036317;28;20044;-73
2022/06/22 07:23:16;;;;;;;6.95;4.72;;;;;;;20.21;49.29;98076.34;5028049;28;20040;-74
2022/06/22 07:25:46;;;;;;;5.68;4.68;;;;;;;20.21;49.52;98073.63;5035970;28;20101;-70
2022/06/22 07:28:23;;;;;;;8.95;4.35;;;;;;;20.16;48.93;98084.28;5035597;28;20067;-72
2022/06/22 07:30:53;;;;;;;7.40;4.13;;;;;;;20.21;49.22;98079.06;5029045;27;20516;-69
2022/06/22 07:33:43;;;;;;;5.68;4.60;;;;;;;20.31;49.32;98077.59;5111521;27;20394;-70
2022/06/22 07:36:25;;;;;;;5.53;4.25;;;;;;;20.64;48.80;98079.47;5097935;27;20054;-71
2022/06/22 07:38:50;;;;;;;7.35;4.20;;;;;;;20.96;48.30;98083.97;5104836;27;20072;-69
2022/06/22 07:41:18;;;;;;;5.30;4.13;;;;;;;21.46;46.84;98091.47;5118227;27;20047;-71
2022/06/22 07:43:46;;;;;;;6.75;4.55;;;;;;;21.88;45.42;98087.28;5098095;27;20555;-70
2022/06/22 07:46:34;;;;;;;7.50;4.20;;;;;;;22.56;44.48;98088.19;5117505;27;20091;-73
2022/06/22 07:49:10;;;;;;;6.25;4.30;;;;;;;23.63;42.13;98094.09;5098744;27;20050;-73
2022/06/22 07:51:41;;;;;;;4.63;4.00;;;;;;;25.06;39.09;98091.91;5098672;27;20042;-73
2022/06/22 07:54:11;;;;;;;5.78;4.65;;;;;;;26.89;34.95;98103.44;5098346;27;20137;-74
2022/06/22 07:56:59;;;;;;;6.28;4.60;;;;;;;27.50;35.23;98093.34;5098789;27;20046;-74
2022/06/22 07:59:56;;;;;;;6.55;4.35;;;;;;;27.76;35.52;98101.63;5098430;27;20038;-73
2022/06/22 08:02:27;;;;;;;8.20;4.40;;;;;;;27.20;34.04;98112.94;5096860;27;20101;-73
2022/06/22 08:04:57;;;;;;;5.88;4.03;;;;;;;26.69;33.93;98117.66;5097850;27;20133;-73
2022/06/22 08:07:25;;;;;;;9.10;4.72;;;;;;;26.00;35.42;98117.00;5099095;27;20043;-72
2022/06/22 08:10:16;;;;;;;5.47;4.05;;;;;;;25.28;36.69;98113.94;5102244;27;20059;-72
2022/06/22 08:12:59;;;;;;;5.30;3.92;;;;;;;24.28;37.45;98115.94;5113831;27;20050;-73
2022/06/22 08:15:24;;;;;;;5.03;4.20;;;;;;;23.38;38.38;98110.50;5084932;27;20045;-70
2022/06/22 08:17:55;;;;;;;4.50;4.00;;;;;;;22.98;39.69;98119.13;5101527;27;20046;-71
2022/06/22 08:20:24;;;;;;;6.05;4.13;;;;;;;22.75;40.29;98111.63;5084579;27;20059;-73
2022/06/22 08:22:49;;;;;;;8.57;3.40;;;;;;;22.56;40.96;98107.19;5119819;27;20042;-70
2022/06/22 08:25:18;;;;;;;7.15;4.30;;;;;;;22.63;40.58;98110.69;5119800;27;20117;-70
2022/06/22 08:27:44;;;;;;;5.55;3.83;;;;;;;22.72;40.35;98111.22;5120189;27;20070;-70
2022/06/22 08:30:11;;;;;;;5.60;4.03;;;;;;;22.77;40.48;98114.97;5083775;27;20066;-71
2022/06/22 08:32:43;;;;;;;6.15;4.43;;;;;;;22.89;40.98;98131.34;5101041;27;20512;-70
2022/06/22 08:35:14;;;;;;;5.10;3.83;;;;;;;22.80;40.68;98121.81;5101466;27;20043;-71
2022/06/22 08:37:53;;;;;;;4.90;3.83;;;;;;;22.94;40.69;98123.34;5103380;27;20042;-71
2022/06/22 08:40:32;;;;;;;7.95;4.22;;;;;;;22.89;41.01;98119.66;5083934;27;20560;-70
2022/06/22 08:43:27;;;;;;;5.30;4.25;;;;;;;22.96;40.83;98120.41;5101052;27;20039;-70
2022/06/22 08:46:32;;;;;;;6.13;3.97;;;;;;;23.20;40.16;98111.34;5100839;27;20057;-72
2022/06/22 08:49:23;;;;;;;6.75;3.80;;;;;;;23.22;39.78;98122.84;5083718;27;20081;-72
2022/06/22 08:52:03;;;;;;;7.47;4.05;;;;;;;23.22;39.31;98125.56;5085223;27;20129;-71
2022/06/22 08:54:43;;;;;;;9.00;3.80;;;;;;;23.20;38.30;98127.66;5104608;27;20073;-71
2022/06/22 08:57:14;;;;;;;5.55;3.33;;;;;;;23.49;38.01;98129.59;5120200;27;20065;-71
2022/06/22 08:59:49;;;;;;;4.10;3.33;;;;;;;23.89;36.87;98142.69;5109618;27;20041;-73
2022/06/22 09:02:35;;;;;;;5.00;3.90;;;;;;;23.88;36.98;98133.69;5134928;27;20061;-72
2022/06/22 09:05:28;;;;;;;5.78;3.47;;;;;;;23.77;36.60;98134.50;5138242;27;20046;-72
2022/06/22 09:08:19;;;;;;;7.05;3.83;;;;;;;23.78;36.66;98127.16;5111710;27;20065;-72
2022/06/22 09:10:49;;;;;;;4.00;3.35;;;;;;;23.80;36.85;98130.47;5121594;27;20046;-72
2022/06/22 09:13:32;;;;;;;6.45;3.58;;;;;;;23.70;36.87;98130.22;5067748;27;20039;-74
2022/06/22 09:15:59;;;;;;;3.55;3.10;;;;;;;23.24;37.48;98128.88;5127154;27;20126;-74
2022/06/22 09:18:33;;;;;;;4.57;3.70;;;;;;;23.03;38.33;98129.31;5090225;27;20054;-76
2022/06/22 09:21:16;;;;;;;5.90;3.67;;;;;;;22.85;39.13;98135.56;5093192;27;20064;-71
2022/06/22 09:24:04;;;;;;;3.88;3.40;;;;;;;22.68;39.46;98154.31;5125959;27;20088;-71
2022/06/22 09:26:38;;;;;;;6.38;3.80;;;;;;;22.44;39.89;98142.41;5108056;27;20039;-72
2022/06/22 09:29:05;;;;;;;6.53;3.33;;;;;;;22.35;40.20;98137.44;5106798;27;20130;-72
2022/06/22 09:31:39;;;;;;;4.53;3.25;;;;;;;22.40;40.22;98145.78;5069749;27;20070;-72
2022/06/22 09:34:22;;;;;;;6.82;3.70;;;;;;;22.51;40.41;98136.06;5103389;27;20049;-78
2022/06/22 09:37:01;;;;;;;5.10;3.63;;;;;;;22.78;39.50;98140.25;5121132;27;20053;-75
2022/06/22 09:39:44;;;;;;;7.22;3.83;;;;;;;23.03;39.01;98134.75;5101917;27;20039;-75
2022/06/22 09:42:19;;;;;;;5.10;3.97;;;;;;;23.47;38.94;98139.06;5085314;27;20052;-77
2022/06/22 09:44:56;;;;;;;6.63;3.80;;;;;;;23.97;38.58;98128.75;5119551;27;20042;-70
2022/06/22 09:47:45;;;;;;;4.57;3.38;;;;;;;24.70;37.29;98127.63;5100344;27;20088;-71
2022/06/22 09:50:26;;;;;;;6.07;4.20;;;;;;;25.20;36.87;98131.50;5098917;27;20417;-72
2022/06/22 09:53:06;;;;;;;5.55;4.03;;;;;;;25.87;35.43;98148.16;5100063;27;20058;-72
2022/06/22 09:56:22;;;;;;;4.68;4.00;;;;;;;26.24;34.63;98143.13;5099697;27;20042;-72
2022/06/22 09:59:06;;;;;;;5.53;3.85;;;;;;;26.75;34.29;98149.44;5099491;27;20049;-71
2022/06/22 10:01:48;;;;;;;6.57;4.20;;;;;;;27.39;33.75;98145.22;5065535;27;20039;-71
2022/06/22 10:04:22;;;;;;;4.35;3.85;;;;;;;27.50;33.95;98146.16;5099538;27;20046;-70
2022/06/22 10:06:53;;;;;;;3.70;3.22;;;;;;;27.50;34.01;98148.91;5099813;27;20046;-71
2022/06/22 10:09:29;;;;;;;9.13;4.40;;;;;;;27.53;33.40;98159.34;5064799;27;20043;-70
2022/06/22 10:12:25;;;;;;;5.57;4.03;;;;;;;27.68;34.44;98159.56;5117895;27;20587;-70
2022/06/22 10:15:08;;;;;;;5.35;3.80;;;;;;;27.73;32.54;98173.31;5118123;27;20454;-72
2022/06/22 10:18:00;;;;;;;5.55;3.30;;;;;;;27.21;32.67;98169.31;5082707;27;20580;-73
2022/06/22 10:20:43;;;;;;;3.80;3.50;;;;;;;27.00;33.22;98158.06;5118170;27;20042;-71
2022/06/22 10:23:28;;;;;;;6.47;3.78;;;;;;;27.40;33.14;98167.94;5119422;27;20536;-72
2022/06/22 10:26:12;;;;;;;8.65;3.83;;;;;;;27.83;32.96;98170.69;5099603;27;20492;-70
2022/06/22 10:29:09;;;;;;;5.00;3.83;;;;;;;28.06;31.85;98155.88;5118450;27;20039;-72
2022/06/22 10:32:15;;;;;;;6.03;3.72;;;;;;;27.97;32.79;98160.19;4997165;28;20049;-71
2022/06/22 10:35:06;;;;;;;10.60;4.50;;;;;;;27.53;33.34;98162.09;5013042;28;20049;-70
2022/06/22 10:37:58;;;;;;;9.65;4.63;;;;;;;27.18;33.86;98167.91;4994329;28;20122;-73
2022/06/22 10:47:13;;;;;;;5.97;4.05;;;;;;;26.16;34.07;98181.78;4992162;28;20507;-71
2022/06/22 10:50:07;;;;;;;8.05;3.67;;;;;;;25.72;35.19;98174.38;4999597;28;20648;-69
2022/06/22 10:53:11;;;;;;;4.35;3.03;;;;;;;25.50;35.57;98182.34;5017467;28;20514;-70
2022/06/22 10:55:57;;;;;;;4.32;3.58;;;;;;;25.11;36.26;98181.19;5005337;28;20562;-69
2022/06/22 10:58:28;;;;;;;3.97;3.05;;;;;;;24.87;36.44;98183.06;5014914;28;20053;-71
2022/06/22 11:01:23;;;;;;;5.95;3.95;;;;;;;24.87;37.37;98188.53;4996780;28;20068;-71
2022/06/22 11:03:59;;;;;;;7.90;3.42;;;;;;;24.74;36.88;98186.00;5019745;28;20398;-72
2022/06/22 11:06:24;;;;;;;6.13;3.90;;;;;;;24.20;37.56;98190.63;5062923;27;20063;-73
2022/06/22 11:09:21;;;;;;;4.60;3.20;;;;;;;24.24;38.18;98200.88;5080985;27;20068;-72
2022/06/22 11:12:07;;;;;;;3.47;3.15;;;;;;;24.06;39.11;98200.03;5096708;27;20626;-73
2022/06/22 11:14:35;;;;;;;9.15;3.90;;;;;;;23.77;39.40;98207.13;5093691;27;20493;-72
2022/06/22 11:17:24;;;;;;;6.43;4.18;;;;;;;23.63;39.61;98197.47;5099966;27;20073;-73
2022/06/22 11:20:06;;;;;;;4.97;3.50;;;;;;;23.27;40.23;98206.44;5117774;27;20046;-73
2022/06/22 11:22:54;;;;;;;3.30;2.97;;;;;;;23.09;40.51;98204.53;5084768;27;20095;-72
2022/06/22 11:32:24;;;;;;;8.88;6.10;;;;;;;22.68;41.59;98219.53;4964538;28;20619;-72
2022/06/22 11:35:23;;;;;;;6.72;4.60;;;;;;;22.71;42.09;98218.22;4978734;28;20045;-71
2022/06/22 11:38:00;;;;;;;7.90;3.70;;;;;;;22.71;41.35;98232.63;4957791;28;20092;-71
2022/06/22 11:40:37;;;;;;;6.18;3.20;;;;;;;22.77;41.65;98226.38;4957641;28;20046;-73
2022/06/22 11:43:33;;;;;;;8.88;6.00;;;;;;;22.86;41.76;98221.47;4957737;28;20125;-69
2022/06/22 11:46:08;;;;;;;7.13;6.07;;;;;;;22.94;42.18;98229.34;4956857;28;20053;-73
2022/06/22 11:48:56;;;;;;;5.35;4.25;;;;;;;23.07;41.46;98220.22;4974457;28;20073;-74
2022/06/22 11:51:36;;;;;;;5.22;3.35;;;;;;;22.95;40.98;98230.16;4974674;28;20049;-70
2022/06/22 11:54:19;;;;;;;3.25;2.97;;;;;;;22.66;40.79;98229.78;4975702;28;20057;-68
2022/06/22 11:56:55;;;;;;;7.97;3.20;;;;;;;22.59;41.17;98236.28;4974046;28;20493;-69
2022/06/22 11:59:57;;;;;;;8.98;3.10;;;;;;;22.25;42.02;98224.00;4974089;28;20084;-67
2022/06/22 12:02:38;;;;;;;3.60;3.00;;;;;;;21.98;42.53;98217.88;5001325;28;20563;-66
2022/06/22 12:05:06;;;;;;;7.05;2.85;;;;;;;22.08;42.22;98227.22;5053679;28;20518;-67
2022/06/22 12:08:04;;;;;;;5.50;2.83;;;;;;;22.36;41.41;98220.56;5073263;28;20087;-67
2022/06/22 12:10:49;;;;;;;4.22;2.60;;;;;;;22.26;41.46;98239.22;5091729;28;20046;-67
2022/06/22 12:15:04;;;;;;;3.10;2.70;;;;;;;22.17;41.54;98222.38;5077333;28;20390;-67
2022/06/22 12:16:33;;;;;;;3.70;2.67;;;;;;;22.20;41.18;98234.69;5077374;28;20825;-67
2022/06/22 12:19:30;;;;;;;7.72;2.80;;;;;;;22.24;40.79;98222.31;5095445;28;20047;-67
2022/06/22 12:22:21;;;;;;;3.08;2.60;;;;;;;22.26;40.98;98231.91;5031833;28;20418;-67
2022/06/22 12:25:15;;;;;;;2.92;2.72;;;;;;;22.12;40.86;98241.22;5031555;28;20465;-68
2022/06/22 12:27:43;;;;;;;2.78;2.50;;;;;;;21.87;40.74;98241.09;4992386;28;20049;-67
2022/06/22 12:30:25;;;;;;;3.60;2.65;;;;;;;21.82;40.89;98229.19;4992249;28;20045;-68
2022/06/22 12:33:11;;;;;;;4.43;3.20;;;;;;;21.74;41.18;98233.84;4975443;28;20480;-68
2022/06/22 12:35:57;;;;;;;2.80;2.60;;;;;;;21.74;41.49;98233.00;4959334;28;20148;-68
2022/06/22 12:38:46;;;;;;;6.40;2.97;;;;;;;21.64;41.71;98236.19;4991864;28;20462;-67
2022/06/22 12:41:29;;;;;;;4.47;2.92;;;;;;;21.44;42.08;98231.88;4991685;28;20048;-67